METAR Data

Data at: 2139 UTC 01 Dec 2021

METAR for:KGHG (Marshfield Muni, MA, US)
Text:KGHG 012115Z AUTO 00000KT 10SM CLR 06/M03 A3011 RMK AO2
Temperature: 6.0°C ( 43°F)
Dewpoint: -3.0°C ( 27°F) [RH = 52%]
Pressure (altimeter):30.11 inches Hg (1019.7 mb)
Winds:calm
Visibility:10 or more sm (16+ km)
Ceiling:at least 12,000 feet AGL
Clouds:sky clear below 12,000 feet AGL
QC Flag:automated observation with no human augmentation